createdAt,value
2023-04-23T00:02:17.057Z,28.17
2023-04-23T00:04:54.502Z,34.70
2023-04-23T00:07:23.114Z,33.90
2023-04-23T00:09:56.517Z,32.83
2023-04-23T00:14:53.114Z,25.58
2023-04-23T00:17:21.375Z,33.40
2023-04-23T00:19:49.753Z,29.52
2023-04-23T00:22:18.114Z,28.75
2023-04-23T00:24:46.634Z,29.70
2023-04-23T00:27:14.928Z,28.30
2023-04-23T00:29:43.648Z,30.63
2023-04-23T00:32:11.932Z,30.25
2023-04-23T00:34:41.218Z,30.05
2023-04-23T00:37:09.756Z,30.83
2023-04-23T00:39:38.859Z,30.20
2023-04-23T00:42:12.448Z,28.20
2023-04-23T00:44:44.147Z,29.23
2023-04-23T00:47:13.021Z,29.63
2023-04-23T00:49:42.641Z,28.90
2023-04-23T00:52:10.869Z,28.20
2023-04-23T00:54:39.192Z,28.98
2023-04-23T00:57:08.144Z,30.67
2023-04-23T00:59:36.456Z,30.85
2023-04-23T01:02:05.558Z,28.88
2023-04-23T01:04:34.978Z,28.45
2023-04-23T01:07:03.964Z,26.33
2023-04-23T01:09:32.618Z,26.48
2023-04-23T01:12:02.576Z,27.05
2023-04-23T01:14:30.853Z,24.60
2023-04-23T01:16:59.517Z,27.75
2023-04-23T01:19:28.059Z,26.77
2023-04-23T01:22:01.148Z,26.98
2023-04-23T01:24:32.749Z,25.60
2023-04-23T01:27:01.782Z,27.20
2023-04-23T01:29:31.321Z,26.27
2023-04-23T01:32:00.531Z,26.48
2023-04-23T01:34:30.322Z,28.65
2023-04-23T01:36:59.476Z,28.02
2023-04-23T01:39:27.894Z,27.55
2023-04-23T01:41:57.388Z,27.52
2023-04-23T01:44:25.722Z,24.73
2023-04-23T01:46:54.633Z,27.15
2023-04-23T01:49:23.214Z,27.85
2023-04-23T01:51:51.633Z,28.83
2023-04-23T01:54:19.913Z,29.67
2023-04-23T01:56:54.802Z,29.48
2023-04-23T01:59:23.762Z,32.08
2023-04-23T02:01:52.170Z,28.98
2023-04-23T02:04:20.913Z,29.92
2023-04-23T02:06:51.116Z,34.90
2023-04-23T02:09:19.564Z,29.75
2023-04-23T02:11:48.266Z,31.73
2023-04-23T02:14:17.703Z,34.83
2023-04-23T02:16:47.497Z,29.77
2023-04-23T02:19:16.953Z,30.30
2023-04-23T02:21:45.353Z,29.10
2023-04-23T02:24:13.767Z,28.30
2023-04-23T02:26:42.097Z,32.20
2023-04-23T02:29:10.634Z,30.38
2023-04-23T02:31:38.901Z,30.25
2023-04-23T02:34:07.234Z,29.08
2023-04-23T02:36:36.651Z,29.95
2023-04-23T02:39:05.007Z,27.33
2023-04-23T02:41:33.273Z,29.08
2023-04-23T02:44:01.488Z,28.40
2023-04-23T02:46:29.821Z,31.05
2023-04-23T02:48:58.125Z,28.67
2023-04-23T02:51:26.477Z,28.88
2023-04-23T02:53:54.761Z,29.35
2023-04-23T02:56:23.088Z,29.52
2023-04-23T02:58:51.495Z,31.40
2023-04-23T03:01:20.487Z,31.30
2023-04-23T03:03:49.158Z,32.58
2023-04-23T03:06:18.067Z,34.85
2023-04-23T03:08:46.321Z,32.22
2023-04-23T03:11:14.739Z,30.95
2023-04-23T03:13:43.117Z,35.00
2023-04-23T03:16:11.676Z,34.20
2023-04-23T03:18:41.070Z,32.30
2023-04-23T03:21:09.318Z,34.38
2023-04-23T03:23:37.749Z,33.80
2023-04-23T03:26:06.100Z,32.13
2023-04-23T03:28:34.391Z,36.95
2023-04-23T03:31:02.691Z,35.20
2023-04-23T03:33:31.168Z,36.17
2023-04-23T03:35:59.407Z,34.72
2023-04-23T03:38:31.474Z,32.50
2023-04-23T03:41:00.953Z,31.92
2023-04-23T03:43:29.910Z,33.90
2023-04-23T03:46:06.945Z,39.45
2023-04-23T03:48:41.654Z,36.05
2023-04-23T03:51:19.502Z,35.17
2023-04-23T03:53:50.852Z,34.83
2023-04-23T03:56:31.017Z,33.55
2023-04-23T03:59:12.045Z,37.83
2023-04-23T04:01:40.412Z,33.70
2023-04-23T04:04:08.847Z,38.60
2023-04-23T04:06:37.304Z,35.35
2023-04-23T04:09:08.003Z,35.67
2023-04-23T04:11:36.902Z,40.70
2023-04-23T04:14:05.220Z,37.83
2023-04-23T04:16:33.658Z,37.15
2023-04-23T04:19:01.937Z,39.05
2023-04-23T04:21:30.207Z,38.13
2023-04-23T04:23:58.498Z,39.28
2023-04-23T04:26:26.718Z,40.75
2023-04-23T04:28:55.128Z,32.35
2023-04-23T04:31:23.423Z,36.45
2023-04-23T04:33:51.665Z,35.67
2023-04-23T04:36:19.913Z,37.00
2023-04-23T04:38:51.016Z,35.58
2023-04-23T04:41:22.642Z,35.28
2023-04-23T04:43:51.901Z,41.25
2023-04-23T04:46:20.844Z,35.70
2023-04-23T04:48:49.443Z,34.00
2023-04-23T04:51:17.901Z,34.15
2023-04-23T04:53:46.056Z,28.50
2023-04-23T04:56:14.201Z,34.30
2023-04-23T04:58:42.498Z,34.90
2023-04-23T05:01:10.976Z,33.08
2023-04-23T05:03:39.530Z,32.85
2023-04-23T05:06:07.938Z,33.67
2023-04-23T05:08:36.193Z,35.63
2023-04-23T05:11:04.537Z,33.53
2023-04-23T05:13:32.880Z,33.33
2023-04-23T05:16:01.420Z,36.35
2023-04-23T05:18:29.682Z,29.60
2023-04-23T05:20:58.160Z,31.98
2023-04-23T05:23:26.409Z,33.03
2023-04-23T05:25:56.757Z,32.80
2023-04-23T05:28:25.454Z,33.83
2023-04-23T05:30:53.632Z,32.20
2023-04-23T05:33:21.976Z,39.00
2023-04-23T05:35:50.357Z,31.90
2023-04-23T05:38:18.614Z,33.40
2023-04-23T05:40:46.971Z,34.47
2023-04-23T05:43:15.291Z,34.35
2023-04-23T05:45:43.947Z,37.60
2023-04-23T05:48:12.225Z,38.50
2023-04-23T05:50:40.489Z,37.03
2023-04-23T05:53:08.841Z,37.95
2023-04-23T05:55:37.084Z,37.03
2023-04-23T05:58:06.189Z,35.28
2023-04-23T06:00:35.591Z,33.65
2023-04-23T06:03:04.076Z,35.00
2023-04-23T06:05:32.421Z,34.90
2023-04-23T06:08:00.756Z,35.42
2023-04-23T06:10:28.960Z,36.33
2023-04-23T06:12:57.278Z,32.17
2023-04-23T06:15:27.262Z,33.28
2023-04-23T06:17:55.759Z,34.50
2023-04-23T06:20:24.061Z,36.80
2023-04-23T06:23:06.806Z,37.65
2023-04-23T06:25:35.036Z,34.78
2023-04-23T06:28:03.227Z,31.88
2023-04-23T06:30:36.821Z,32.55
2023-04-23T06:33:05.203Z,36.05
2023-04-23T06:35:33.408Z,35.10
2023-04-23T06:38:01.634Z,39.38
2023-04-23T06:40:30.012Z,37.97
2023-04-23T06:42:58.497Z,34.47
2023-04-23T06:45:56.430Z,38.85
2023-04-23T06:48:26.010Z,39.42
2023-04-23T06:50:54.365Z,39.17
2023-04-23T06:53:22.957Z,37.53
2023-04-23T06:55:51.481Z,38.88
2023-04-23T06:58:20.888Z,39.53
2023-04-23T07:00:49.172Z,38.22
2023-04-23T07:03:19.050Z,40.28
2023-04-23T07:05:47.314Z,36.08
2023-04-23T07:08:15.638Z,35.42
2023-04-23T07:10:43.991Z,40.83
2023-04-23T07:13:12.290Z,40.92
2023-04-23T07:15:41.584Z,39.30
2023-04-23T07:18:10.308Z,40.55
2023-04-23T07:20:38.823Z,40.13
2023-04-23T07:23:07.106Z,37.72
2023-04-23T07:25:35.338Z,38.78
2023-04-23T07:28:04.138Z,40.63
2023-04-23T07:30:32.535Z,37.92
2023-04-23T07:33:01.147Z,39.88
2023-04-23T07:35:29.577Z,41.20
2023-04-23T07:37:58.323Z,42.75
2023-04-23T07:40:26.653Z,32.83
2023-04-23T07:42:55.334Z,35.67
2023-04-23T07:45:23.591Z,41.13
2023-04-23T07:47:51.908Z,33.22
2023-04-23T07:50:20.360Z,34.65
2023-04-23T07:52:48.664Z,35.80
2023-04-23T07:55:17.090Z,36.20
2023-04-23T07:57:45.461Z,33.72
2023-04-23T08:00:14.498Z,35.65
2023-04-23T08:02:42.870Z,31.17
2023-04-23T08:05:11.464Z,34.90
2023-04-23T08:07:40.014Z,30.92
2023-04-23T08:10:08.864Z,33.72
2023-04-23T08:12:37.187Z,30.90
2023-04-23T08:15:06.034Z,32.50
2023-04-23T08:17:41.580Z,33.42
2023-04-23T08:20:10.235Z,30.15
2023-04-23T08:22:38.459Z,31.17
2023-04-23T08:25:07.263Z,31.13
2023-04-23T08:27:35.645Z,29.33
2023-04-23T08:30:04.327Z,29.88
2023-04-23T08:32:32.594Z,32.90
2023-04-23T08:35:00.855Z,31.55
2023-04-23T08:37:31.351Z,31.15
2023-04-23T08:40:00.779Z,37.10
2023-04-23T08:42:57.393Z,33.10
2023-04-23T08:45:26.860Z,33.30
2023-04-23T08:48:02.375Z,33.58
2023-04-23T08:50:31.471Z,33.13
2023-04-23T08:53:00.785Z,33.97
2023-04-23T08:55:29.144Z,35.92
2023-04-23T08:57:59.591Z,33.13
2023-04-23T09:00:28.006Z,35.08
2023-04-23T09:02:57.272Z,31.85
2023-04-23T09:05:26.447Z,32.58
2023-04-23T09:07:55.419Z,31.63
2023-04-23T09:10:24.866Z,32.38
2023-04-23T09:12:53.214Z,32.92
2023-04-23T09:15:22.383Z,31.60
2023-04-23T09:17:51.256Z,29.92
2023-04-23T09:20:19.609Z,27.58
2023-04-23T09:22:55.303Z,26.02
2023-04-23T09:25:24.987Z,29.13
2023-04-23T09:27:54.068Z,26.88
2023-04-23T09:30:23.474Z,29.40
2023-04-23T09:32:53.042Z,24.33
2023-04-23T09:35:21.568Z,28.23
2023-04-23T09:37:52.882Z,27.92
2023-04-23T09:40:24.087Z,25.92
2023-04-23T09:42:54.686Z,25.38
2023-04-23T09:45:25.852Z,30.65
2023-04-23T09:48:00.309Z,26.60
2023-04-23T09:50:39.542Z,24.38
2023-04-23T09:53:09.725Z,23.27
2023-04-23T09:55:39.923Z,23.48
2023-04-23T09:58:12.890Z,18.85
2023-04-23T10:00:42.084Z,21.35
2023-04-23T10:03:11.943Z,20.30
2023-04-23T10:05:59.594Z,21.27
2023-04-23T10:08:31.916Z,24.75
2023-04-23T10:11:13.674Z,24.92
2023-04-23T10:13:48.327Z,23.75
2023-04-23T10:16:23.158Z,23.50
2023-04-23T10:18:55.413Z,20.70
2023-04-23T10:21:36.633Z,20.55
2023-04-23T10:24:20.208Z,23.83
2023-04-23T10:26:50.056Z,20.92
2023-04-23T10:29:19.501Z,21.15
2023-04-23T10:31:48.653Z,22.88
2023-04-23T10:34:17.521Z,19.70
2023-04-23T10:36:45.955Z,23.13
2023-04-23T10:39:27.297Z,26.33
2023-04-23T10:41:58.936Z,23.50
2023-04-23T10:44:57.932Z,24.55
2023-04-23T10:47:31.822Z,21.60
2023-04-23T10:50:24.867Z,25.33
2023-04-23T10:52:54.528Z,24.77
2023-04-23T10:55:28.493Z,21.45
2023-04-23T10:58:02.297Z,21.88
2023-04-23T11:00:51.668Z,24.25
2023-04-23T11:03:44.594Z,23.80
2023-04-23T11:06:19.149Z,18.80
2023-04-23T11:08:54.820Z,20.17
2023-04-23T11:11:40.467Z,20.15
2023-04-23T11:14:14.611Z,16.58
2023-04-23T11:16:43.423Z,21.02
2023-04-23T11:19:13.081Z,16.95
2023-04-23T11:22:04.708Z,17.65
2023-04-23T11:24:37.381Z,14.77
2023-04-23T11:27:11.590Z,18.00
2023-04-23T11:29:42.564Z,16.73
2023-04-23T11:32:14.221Z,18.02
2023-04-23T11:34:45.462Z,14.90
2023-04-23T11:37:15.577Z,16.13
2023-04-23T11:39:47.583Z,12.63
2023-04-23T11:42:17.394Z,13.60
2023-04-23T11:44:46.677Z,11.25
2023-04-23T11:47:19.186Z,15.55
2023-04-23T11:49:49.771Z,12.10
2023-04-23T11:52:18.105Z,16.05
2023-04-23T11:54:46.392Z,10.10
2023-04-23T11:57:14.671Z,13.02
2023-04-23T11:59:43.632Z,8.95
2023-04-23T12:02:12.305Z,8.70
2023-04-23T12:04:41.331Z,10.50
2023-04-23T12:07:19.662Z,11.85
2023-04-23T12:10:00.316Z,11.05
2023-04-23T12:12:36.124Z,7.65
2023-04-23T12:15:08.506Z,6.57
2023-04-23T12:17:36.819Z,9.33
2023-04-23T12:20:07.231Z,6.63
2023-04-23T12:22:35.727Z,7.75
2023-04-23T12:25:09.563Z,7.18
2023-04-23T12:27:42.644Z,9.55
2023-04-23T12:30:12.058Z,10.00
2023-04-23T12:32:41.467Z,10.02
2023-04-23T12:35:11.222Z,6.07
2023-04-23T12:37:39.662Z,6.80
2023-04-23T12:40:08.824Z,8.43
2023-04-23T12:42:37.491Z,6.75
2023-04-23T12:45:10.124Z,7.28
2023-04-23T12:47:38.436Z,9.95
2023-04-23T12:50:07.255Z,7.57
2023-04-23T12:52:35.560Z,7.57
2023-04-23T12:55:05.157Z,8.10
2023-04-23T12:57:33.517Z,8.10
2023-04-23T13:00:02.360Z,7.47
2023-04-23T13:02:31.281Z,7.85
2023-04-23T13:05:01.321Z,12.27
2023-04-23T13:07:29.776Z,8.32
2023-04-23T13:09:59.625Z,6.75
2023-04-23T13:12:28.171Z,7.78
2023-04-23T13:14:57.115Z,7.35
2023-04-23T13:17:26.504Z,9.05
2023-04-23T13:19:55.841Z,11.18
2023-04-23T13:22:28.415Z,11.02
2023-04-23T13:25:00.064Z,9.07
2023-04-23T13:27:29.339Z,9.90
2023-04-23T13:29:58.708Z,7.25
2023-04-23T13:32:31.935Z,6.63
2023-04-23T13:35:02.813Z,13.48
2023-04-23T13:37:31.848Z,11.60
2023-04-23T13:40:01.369Z,8.27
2023-04-23T13:42:29.593Z,8.85
2023-04-23T13:44:57.821Z,7.60
2023-04-23T13:47:31.369Z,7.68
2023-04-23T13:50:03.214Z,8.30
2023-04-23T13:52:31.912Z,8.15
2023-04-23T13:55:02.782Z,8.73
2023-04-23T13:57:31.373Z,7.55
2023-04-23T14:00:00.703Z,8.60
2023-04-23T14:02:28.987Z,10.02
2023-04-23T14:04:58.462Z,7.38
2023-04-23T14:07:26.842Z,8.38
2023-04-23T14:09:55.085Z,10.73
2023-04-23T14:12:24.268Z,7.93
2023-04-23T14:14:52.573Z,10.60
2023-04-23T14:17:20.780Z,8.07
2023-04-23T14:19:49.186Z,9.60
2023-04-23T14:22:17.490Z,7.80
2023-04-23T14:24:50.017Z,9.93
2023-04-23T14:27:18.305Z,8.77
2023-04-23T14:30:13.723Z,9.45
2023-04-23T14:32:43.171Z,8.48
2023-04-23T14:35:12.591Z,9.13
2023-04-23T14:37:44.852Z,7.30
2023-04-23T14:40:15.913Z,5.70
2023-04-23T14:42:45.639Z,9.60
2023-04-23T14:45:14.838Z,7.05
2023-04-23T14:47:48.259Z,7.65
2023-04-23T14:52:49.321Z,9.20
2023-04-23T14:55:18.017Z,5.72
2023-04-23T14:57:46.385Z,7.65
2023-04-23T15:00:15.519Z,8.60
2023-04-23T15:02:47.430Z,7.20
2023-04-23T15:05:16.723Z,6.07
2023-04-23T15:07:45.021Z,7.07
2023-04-23T15:10:13.826Z,7.25
2023-04-23T15:13:08.392Z,7.38
2023-04-23T15:15:49.587Z,7.18
2023-04-23T15:18:19.139Z,7.43
2023-04-23T15:20:47.394Z,10.02
2023-04-23T15:23:15.779Z,8.48
2023-04-23T15:25:44.092Z,9.77
2023-04-23T15:28:12.495Z,5.80
2023-04-23T15:30:43.397Z,6.95
2023-04-23T15:33:12.056Z,8.05
2023-04-23T15:35:40.296Z,7.68
2023-04-23T15:38:08.529Z,8.00
2023-04-23T15:43:28.103Z,8.10
2023-04-23T15:45:58.739Z,8.02
2023-04-23T15:48:27.574Z,8.70
2023-04-23T15:50:55.868Z,7.47
2023-04-23T15:53:24.122Z,6.63
2023-04-23T15:55:52.775Z,8.15
2023-04-23T15:58:22.078Z,6.47
2023-04-23T16:00:50.360Z,7.07
2023-04-23T16:03:18.858Z,9.38
2023-04-23T16:05:50.627Z,9.60
2023-04-23T16:08:18.967Z,8.10
2023-04-23T16:10:47.395Z,11.40
2023-04-23T16:13:15.607Z,6.50
2023-04-23T16:15:43.837Z,7.63
2023-04-23T16:18:12.119Z,5.22
2023-04-23T16:20:40.460Z,9.18
2023-04-23T16:23:08.627Z,7.75
2023-04-23T16:25:37.183Z,8.18
2023-04-23T16:28:05.538Z,4.95
2023-04-23T16:30:33.777Z,5.68
2023-04-23T16:33:02.112Z,7.32
2023-04-23T16:35:30.536Z,7.40
2023-04-23T16:37:58.800Z,5.25
2023-04-23T16:40:27.847Z,6.22
2023-04-23T16:42:56.090Z,6.90
2023-04-23T16:45:24.384Z,7.07
2023-04-23T16:47:52.658Z,8.38
2023-04-23T16:50:25.108Z,7.90
2023-04-23T16:52:53.707Z,7.93
2023-04-23T16:55:22.207Z,5.57
2023-04-23T16:57:50.463Z,5.72
2023-04-23T17:00:18.767Z,6.97
2023-04-23T17:02:47.116Z,7.43
2023-04-23T17:05:15.447Z,8.63
2023-04-23T17:07:44.079Z,8.50
2023-04-23T17:10:12.458Z,6.28
2023-04-23T17:12:40.806Z,7.85
2023-04-23T17:15:09.630Z,8.30
2023-04-23T17:17:38.525Z,8.18
2023-04-23T17:20:08.128Z,7.07
2023-04-23T17:22:36.345Z,7.18
2023-04-23T17:25:06.281Z,5.45
2023-04-23T17:27:34.494Z,6.55
2023-04-23T17:30:02.821Z,6.03
2023-04-23T17:32:31.189Z,6.82
2023-04-23T17:35:09.597Z,6.78
2023-04-23T17:37:39.177Z,6.07
2023-04-23T17:40:08.160Z,6.20
2023-04-23T17:42:36.580Z,10.25
2023-04-23T17:45:06.030Z,7.25
2023-04-23T17:47:34.329Z,5.82
2023-04-23T17:50:02.614Z,9.18
2023-04-23T17:52:31.441Z,7.32
2023-04-23T17:55:00.324Z,6.10
2023-04-23T17:57:28.513Z,7.78
2023-04-23T17:59:59.231Z,8.43
2023-04-23T18:02:27.818Z,8.75
2023-04-23T18:04:56.236Z,8.88
2023-04-23T18:07:24.587Z,9.23
2023-04-23T18:09:52.811Z,9.50
2023-04-23T18:12:21.047Z,8.50
2023-04-23T18:14:49.304Z,10.23
2023-04-23T18:17:17.574Z,7.57
2023-04-23T18:19:45.852Z,8.98
2023-04-23T18:22:14.073Z,9.40
2023-04-23T18:24:42.867Z,9.75
2023-04-23T18:27:11.405Z,8.05
2023-04-23T18:29:43.371Z,8.65
2023-04-23T18:32:20.916Z,10.65
2023-04-23T18:34:57.019Z,9.63
2023-04-23T18:37:43.790Z,10.20
2023-04-23T18:40:12.490Z,9.00
2023-04-23T18:42:40.707Z,13.65
2023-04-23T18:45:10.702Z,11.70
2023-04-23T18:47:50.553Z,9.05
2023-04-23T18:50:48.551Z,11.40
2023-04-23T18:53:16.834Z,12.13
2023-04-23T18:55:45.150Z,9.65
2023-04-23T18:58:13.469Z,11.13
2023-04-23T19:00:41.843Z,9.02
2023-04-23T19:03:23.490Z,12.63
2023-04-23T19:05:54.995Z,13.45
2023-04-23T19:08:28.403Z,11.00
2023-04-23T19:10:57.156Z,10.82
2023-04-23T19:13:25.468Z,12.20
2023-04-23T19:15:53.845Z,13.40
2023-04-23T19:18:23.004Z,11.88
2023-04-23T19:20:52.669Z,13.18
2023-04-23T19:23:21.006Z,14.95
2023-04-23T19:25:49.236Z,14.15
2023-04-23T19:28:17.585Z,14.95
2023-04-23T19:30:45.804Z,15.60
2023-04-23T19:33:14.049Z,16.90
2023-04-23T19:35:42.585Z,16.00
2023-04-23T19:38:11.070Z,17.23
2023-04-23T19:40:39.409Z,15.75
2023-04-23T19:43:07.843Z,12.98
2023-04-23T19:45:36.188Z,11.98
2023-04-23T19:48:04.847Z,14.32
2023-04-23T19:50:33.318Z,13.82
2023-04-23T19:53:01.722Z,15.20
2023-04-23T19:55:30.096Z,15.07
2023-04-23T19:57:58.793Z,15.38
2023-04-23T20:00:31.220Z,16.10
2023-04-23T20:03:00.808Z,14.27
2023-04-23T20:05:29.883Z,13.57
2023-04-23T20:08:00.207Z,12.05
2023-04-23T20:10:30.503Z,13.25
2023-04-23T20:12:59.819Z,13.70
2023-04-23T20:15:28.389Z,12.98
2023-04-23T20:17:56.659Z,14.00
2023-04-23T20:20:28.069Z,12.23
2023-04-23T20:22:56.383Z,14.38
2023-04-23T20:25:25.951Z,12.68
2023-04-23T20:27:57.176Z,13.40
2023-04-23T20:30:25.404Z,14.07
2023-04-23T20:32:53.714Z,13.88
2023-04-23T20:35:22.144Z,12.73
2023-04-23T20:37:52.126Z,12.27
2023-04-23T20:40:20.534Z,11.25
2023-04-23T20:42:51.654Z,12.77
2023-04-23T20:45:20.839Z,10.05
2023-04-23T20:47:50.261Z,13.30
2023-04-23T20:50:18.872Z,10.80
2023-04-23T20:52:47.192Z,11.63
2023-04-23T20:55:15.482Z,12.85
2023-04-23T20:57:43.799Z,10.00
2023-04-23T21:00:12.374Z,10.18
2023-04-23T21:02:41.636Z,8.50
2023-04-23T21:05:12.319Z,9.63
2023-04-23T21:07:40.826Z,11.93
2023-04-23T21:10:09.384Z,9.38
2023-04-23T21:12:38.033Z,10.13
2023-04-23T21:15:07.102Z,13.27
2023-04-23T21:17:35.611Z,8.02
2023-04-23T21:20:05.301Z,11.23
2023-04-23T21:22:33.586Z,15.00
2023-04-23T21:25:02.148Z,8.95
2023-04-23T21:27:33.760Z,8.68
2023-04-23T21:30:09.930Z,9.20
2023-04-23T21:32:38.945Z,14.32
2023-04-23T21:35:07.706Z,12.25
2023-04-23T21:37:37.446Z,12.75
2023-04-23T21:40:06.527Z,11.10
2023-04-23T21:42:35.403Z,9.05
2023-04-23T21:45:03.800Z,12.30
2023-04-23T21:47:32.292Z,8.82
2023-04-23T21:50:01.554Z,9.10
2023-04-23T21:52:30.213Z,13.50
2023-04-23T21:54:58.455Z,10.77
2023-04-23T21:57:26.731Z,13.68
2023-04-23T21:59:55.058Z,14.77
2023-04-23T22:02:23.508Z,15.95
2023-04-23T22:04:51.936Z,17.08
2023-04-23T22:07:20.829Z,10.45
2023-04-23T22:09:49.119Z,11.27
2023-04-23T22:12:17.352Z,11.52
2023-04-23T22:14:45.585Z,17.08
2023-04-23T22:17:13.866Z,13.82
2023-04-23T22:19:42.349Z,13.32
2023-04-23T22:22:10.915Z,11.30
2023-04-23T22:24:39.185Z,12.88
2023-04-23T22:27:07.513Z,14.95
2023-04-23T22:29:35.848Z,10.02
2023-04-23T22:32:04.159Z,12.75
2023-04-23T22:34:32.497Z,12.25
2023-04-23T22:37:00.991Z,12.27
2023-04-23T22:39:29.278Z,13.15
2023-04-23T22:41:57.479Z,13.13
2023-04-23T22:44:25.768Z,13.57
2023-04-23T22:46:54.082Z,11.27
2023-04-23T22:49:22.883Z,13.65
2023-04-23T22:51:51.276Z,12.90
2023-04-23T22:54:19.458Z,9.10
2023-04-23T22:56:47.901Z,11.82
2023-04-23T22:59:16.113Z,11.85
2023-04-23T23:01:44.448Z,10.77
2023-04-23T23:04:13.149Z,9.65
2023-04-23T23:06:46.325Z,10.30
2023-04-23T23:09:14.598Z,10.45
2023-04-23T23:11:42.862Z,12.95
2023-04-23T23:14:11.467Z,9.68
2023-04-23T23:16:39.855Z,11.88
2023-04-23T23:19:08.339Z,9.80
2023-04-23T23:21:36.627Z,10.05
2023-04-23T23:24:05.020Z,10.10
2023-04-23T23:26:33.271Z,10.00
2023-04-23T23:29:01.603Z,9.52
2023-04-23T23:31:29.990Z,12.85
2023-04-23T23:33:58.333Z,7.55
2023-04-23T23:36:27.906Z,9.43
2023-04-23T23:38:56.102Z,9.60
2023-04-23T23:41:24.275Z,7.32
2023-04-23T23:43:53.269Z,13.02
2023-04-23T23:46:22.686Z,9.68
2023-04-23T23:48:51.345Z,8.90
2023-04-23T23:51:19.794Z,7.13
2023-04-23T23:53:48.022Z,8.68
2023-04-23T23:56:16.272Z,9.57
2023-04-23T23:58:44.525Z,6.63
